Time;durP1;ratioP1;P1;durP2;ratioP2;P2;SDS_P1;SDS_P2;PMS_P1;PMS_P2;Temp;Humidity;BMP_temperature;BMP_pressure;BME280_temperature;BME280_humidity;BME280_pressure;Samples;Min_cycle;Max_cycle;Signal;HPM_P1;HPM_P2
2021/12/17 00:06:42;;;;;;;72.28;27.13;;;8.40;99.90;;;;;;7262416;32;20153;-80
2021/12/17 00:10:48;;;;;;;70.65;29.42;;;8.30;99.90;;;;;;7250464;32;20137;-79
2021/12/17 00:14:51;;;;;;;65.23;25.53;;;8.40;99.90;;;;;;7262770;32;20108;-79
2021/12/17 00:19:18;;;;;;;74.28;28.80;;;8.40;99.90;;;;;;7254106;32;20242;-80
2021/12/17 00:48:49;;;;;;;74.25;29.87;;;8.40;99.90;;;;;;7260243;32;20120;-80
2021/12/17 00:52:51;;;;;;;71.97;27.80;;;8.40;99.90;;;;;;7257995;32;20182;-81
2021/12/17 00:56:55;;;;;;;67.72;26.50;;;8.40;99.90;;;;;;7255094;32;20206;-80
2021/12/17 01:00:56;;;;;;;71.78;27.70;;;8.40;99.90;;;;;;7280121;32;20736;-80
2021/12/17 01:05:03;;;;;;;69.90;27.15;;;8.40;99.90;;;;;;7276439;32;20089;-80
2021/12/17 01:09:07;;;;;;;73.07;29.10;;;8.40;99.90;;;;;;7264492;32;20113;-80
2021/12/17 01:13:10;;;;;;;78.30;28.85;;;8.40;99.90;;;;;;7266323;32;20132;-80
2021/12/17 01:17:14;;;;;;;65.07;27.58;;;8.40;99.90;;;;;;7262182;32;20860;-80
2021/12/17 01:39:34;;;;;;;71.47;25.45;;;8.30;99.90;;;;;;7253249;32;20142;-79
2021/12/17 01:43:00;;;;;;;67.97;26.65;;;8.30;99.90;;;;;;7263856;32;20140;-80
2021/12/17 01:47:03;;;;;;;61.40;24.35;;;8.30;99.90;;;;;;7268466;32;20574;-79
2021/12/17 01:59:51;;;;;;;77.32;27.40;;;8.30;99.90;;;;;;7271472;32;20159;-80
2021/12/17 02:03:55;;;;;;;70.37;26.33;;;8.30;99.90;;;;;;7262038;32;20227;-79
2021/12/17 02:07:58;;;;;;;79.40;29.35;;;8.30;99.90;;;;;;7261979;32;20224;-79
2021/12/17 02:12:23;;;;;;;67.40;24.77;;;8.40;99.90;;;;;;7261194;32;20120;-79
2021/12/17 02:33:24;;;;;;;68.37;26.73;;;8.40;99.90;;;;;;7276328;32;20144;-79
2021/12/17 02:37:28;;;;;;;66.10;26.60;;;8.30;99.90;;;;;;7262218;32;20131;-79
2021/12/17 02:45:51;;;;;;;68.60;26.42;;;8.40;99.90;;;;;;7263946;32;20143;-79
2021/12/17 02:49:52;;;;;;;58.72;24.73;;;8.40;99.90;;;;;;7250384;32;20176;-79
2021/12/17 02:53:55;;;;;;;69.78;26.73;;;8.40;99.90;;;;;;7277210;32;20526;-79
2021/12/17 02:57:57;;;;;;;63.30;26.20;;;8.30;99.90;;;;;;7263206;32;20238;-79
2021/12/17 03:02:02;;;;;;;73.10;26.98;;;8.30;99.90;;;;;;7251851;32;20134;-80
2021/12/17 03:06:05;;;;;;;66.72;26.27;;;8.30;99.90;;;;;;7270245;32;20116;-79
2021/12/17 03:10:10;;;;;;;61.72;23.73;;;8.30;99.90;;;;;;7281792;32;20225;-79
2021/12/17 03:14:12;;;;;;;64.87;24.92;;;8.30;99.90;;;;;;7253915;32;20101;-79
2021/12/17 03:26:46;;;;;;;69.45;27.60;;;8.30;99.90;;;;;;7283135;32;20116;-80
2021/12/17 03:30:57;;;;;;;66.12;24.67;;;8.30;99.90;;;;;;7256742;32;20162;-79
2021/12/17 03:34:59;;;;;;;64.05;25.27;;;8.30;99.90;;;;;;7276549;32;20125;-80
2021/12/17 03:39:01;;;;;;;56.00;24.35;;;8.30;99.90;;;;;;7256490;32;20169;-80
2021/12/17 03:43:11;;;;;;;62.13;25.45;;;8.30;99.90;;;;;;7285286;32;20078;-79
2021/12/17 03:47:12;;;;;;;67.35;26.80;;;8.30;99.90;;;;;;7289360;32;20101;-79
2021/12/17 03:51:16;;;;;;;60.65;25.45;;;8.30;99.90;;;;;;7265296;32;20132;-80
2021/12/17 03:55:18;;;;;;;63.55;25.10;;;8.30;99.90;;;;;;7278099;32;20166;-80
2021/12/17 03:59:20;;;;;;;64.72;26.05;;;8.30;99.90;;;;;;7264202;32;20172;-78
2021/12/17 04:03:22;;;;;;;64.62;25.23;;;8.30;99.90;;;;;;7286236;32;20170;-79
2021/12/17 04:07:24;;;;;;;70.18;27.55;;;8.30;99.90;;;;;;7280102;32;20225;-79
2021/12/17 04:11:26;;;;;;;65.87;26.35;;;8.30;99.90;;;;;;7263619;32;20129;-79
2021/12/17 04:15:35;;;;;;;69.00;25.45;;;8.30;99.90;;;;;;7266581;32;20155;-80
2021/12/17 04:19:37;;;;;;;67.15;27.52;;;8.30;99.90;;;;;;7271645;32;20128;-79
2021/12/17 04:23:40;;;;;;;68.28;27.15;;;8.30;99.90;;;;;;7252253;32;20124;-79
2021/12/17 04:27:42;;;;;;;60.17;25.15;;;8.30;99.90;;;;;;7264464;32;20101;-79
2021/12/17 04:31:50;;;;;;;63.15;25.62;;;8.30;99.90;;;;;;7267387;32;20617;-79
2021/12/17 04:35:52;;;;;;;69.35;27.37;;;8.20;99.90;;;;;;7260514;32;20121;-79
2021/12/17 04:39:53;;;;;;;73.07;29.45;;;8.20;99.90;;;;;;7245977;32;20203;-79
2021/12/17 04:44:05;;;;;;;70.37;27.33;;;8.20;99.90;;;;;;7252482;32;20108;-79
2021/12/17 05:00:58;;;;;;;62.53;27.17;;;8.20;99.90;;;;;;7263120;32;20830;-79
2021/12/17 05:05:07;;;;;;;62.67;25.55;;;8.30;99.90;;;;;;7265603;32;20128;-80
2021/12/17 05:09:20;;;;;;;68.28;26.55;;;8.20;99.90;;;;;;7266890;32;20489;-80
2021/12/17 05:22:08;;;;;;;71.85;27.92;;;8.30;99.90;;;;;;7277464;32;20120;-80
2021/12/17 05:26:13;;;;;;;117.07;36.53;;;8.30;99.90;;;;;;7259064;32;20155;-80
2021/12/17 05:30:15;;;;;;;102.75;34.58;;;8.30;99.90;;;;;;7275310;32;20223;-80
2021/12/17 05:34:17;;;;;;;106.87;34.88;;;8.30;99.90;;;;;;7258841;32;21722;-80
2021/12/17 05:38:20;;;;;;;115.37;37.70;;;8.40;99.90;;;;;;7245361;32;20148;-81
2021/12/17 05:42:23;;;;;;;105.57;35.40;;;8.30;99.90;;;;;;7256804;32;20104;-77
2021/12/17 05:46:49;;;;;;;108.63;36.47;;;8.30;99.90;;;;;;7245598;32;20113;-78
2021/12/17 05:50:55;;;;;;;112.20;37.10;;;8.40;99.90;;;;;;7274487;32;20130;-80
2021/12/17 05:54:57;;;;;;;127.90;39.70;;;8.40;99.90;;;;;;7251178;32;20314;-81
2021/12/17 05:58:59;;;;;;;118.82;38.00;;;8.30;99.90;;;;;;7253883;32;20175;-82
2021/12/17 06:03:02;;;;;;;94.28;34.22;;;8.30;99.90;;;;;;7248047;32;20877;-82
2021/12/17 06:07:04;;;;;;;90.50;29.60;;;8.30;99.90;;;;;;7254949;32;20715;-82
2021/12/17 06:11:06;;;;;;;110.72;35.72;;;8.30;99.90;;;;;;7243555;32;20147;-82
2021/12/17 06:15:10;;;;;;;120.97;38.63;;;8.30;99.90;;;;;;7240479;32;20170;-82
2021/12/17 06:19:13;;;;;;;121.78;38.97;;;8.40;99.90;;;;;;7240339;32;20200;-82
2021/12/17 06:23:15;;;;;;;112.05;37.05;;;8.30;99.90;;;;;;7264211;32;20167;-82
2021/12/17 06:27:20;;;;;;;116.68;37.25;;;8.30;99.90;;;;;;7237754;32;20172;-82
2021/12/17 06:31:23;;;;;;;111.12;35.30;;;8.30;99.90;;;;;;7250616;32;20146;-82
2021/12/17 06:35:25;;;;;;;114.55;39.47;;;8.30;99.90;;;;;;7280616;32;20154;-82
2021/12/17 06:39:27;;;;;;;115.28;35.78;;;8.30;99.90;;;;;;7262970;32;20658;-82
2021/12/17 06:43:36;;;;;;;96.82;34.92;;;8.30;99.90;;;;;;7244655;32;20176;-82
2021/12/17 06:47:39;;;;;;;94.57;34.70;;;8.30;99.90;;;;;;7277880;32;20557;-83
2021/12/17 07:01:00;;;;;;;75.07;28.35;;;8.30;99.90;;;;;;7203767;32;20569;-82
2021/12/17 07:22:42;;;;;;;56.08;24.42;;;8.40;99.90;;;;;;7254585;32;20132;-81
2021/12/17 07:39:24;;;;;;;45.30;21.25;;;8.30;99.90;;;;;;7273028;32;20104;-79
2021/12/17 07:43:36;;;;;;;37.05;17.17;;;8.40;99.90;;;;;;7245563;32;20289;-81
2021/12/17 07:47:38;;;;;;;39.03;18.95;;;8.50;99.90;;;;;;7252248;32;20097;-81
2021/12/17 07:51:40;;;;;;;40.58;18.73;;;8.40;99.90;;;;;;7257525;32;20112;-82
2021/12/17 07:55:42;;;;;;;39.47;19.40;;;8.30;99.90;;;;;;7264677;32;20171;-80
2021/12/17 07:59:44;;;;;;;43.13;19.75;;;8.30;99.90;;;;;;7274036;32;20763;-79
2021/12/17 08:03:46;;;;;;;41.78;19.23;;;8.30;99.90;;;;;;7274020;32;20255;-78
2021/12/17 08:07:47;;;;;;;40.35;17.87;;;8.30;99.90;;;;;;7258898;32;20109;-81
2021/12/17 08:11:55;;;;;;;43.33;18.90;;;8.30;99.90;;;;;;7246480;32;20131;-79
2021/12/17 08:24:57;;;;;;;41.45;18.58;;;8.30;99.90;;;;;;7253399;32;20108;-78
2021/12/17 08:33:00;;;;;;;46.15;20.17;;;8.30;99.90;;;;;;7258292;32;20473;-84
2021/12/17 08:37:03;;;;;;;48.10;19.27;;;8.20;99.90;;;;;;7249945;32;20166;-82
2021/12/17 08:41:05;;;;;;;50.42;21.80;;;8.20;99.90;;;;;;7245454;32;20295;-83
2021/12/17 08:45:08;;;;;;;48.50;19.90;;;8.20;99.90;;;;;;7255614;32;20134;-84
2021/12/17 08:49:10;;;;;;;54.58;20.92;;;8.30;99.90;;;;;;7258021;32;20113;-83
2021/12/17 08:53:12;;;;;;;45.65;19.90;;;8.20;99.90;;;;;;7247201;32;20195;-82
2021/12/17 08:57:14;;;;;;;47.65;20.00;;;8.30;99.90;;;;;;7252587;32;20135;-83
2021/12/17 09:01:16;;;;;;;47.25;20.40;;;8.30;99.90;;;;;;7249674;32;20195;-81
2021/12/17 09:05:18;;;;;;;49.95;19.98;;;8.30;99.90;;;;;;7249390;32;20116;-80
2021/12/17 09:09:21;;;;;;;45.25;19.02;;;8.30;99.90;;;;;;7254149;32;20316;-81
2021/12/17 09:13:27;;;;;;;52.15;20.37;;;8.30;99.90;;;;;;7241038;32;20154;-82
2021/12/17 09:17:28;;;;;;;42.30;18.48;;;8.30;99.90;;;;;;7239195;32;20162;-82
2021/12/17 09:21:30;;;;;;;43.97;19.98;;;8.30;99.90;;;;;;7249224;32;20129;-81
2021/12/17 09:25:32;;;;;;;54.67;22.15;;;8.40;99.90;;;;;;7246196;32;20655;-83
2021/12/17 09:29:34;;;;;;;46.08;20.62;;;8.40;99.90;;;;;;7245700;32;20227;-84
2021/12/17 09:33:37;;;;;;;54.58;23.62;;;8.40;99.90;;;;;;7246446;32;20222;-83
2021/12/17 09:37:39;;;;;;;55.92;23.27;;;8.40;99.90;;;;;;7242733;32;20154;-81
2021/12/17 09:41:43;;;;;;;56.60;24.50;;;8.30;99.90;;;;;;7260263;32;20151;-81
2021/12/17 09:45:45;;;;;;;63.17;24.67;;;8.30;99.90;;;;;;7254304;32;20113;-81
2021/12/17 09:49:51;;;;;;;59.92;24.33;;;8.40;99.90;;;;;;7265016;32;20132;-81
2021/12/17 09:53:53;;;;;;;69.53;26.35;;;8.40;99.90;;;;;;7264317;32;20154;-81
2021/12/17 09:57:55;;;;;;;61.05;24.87;;;8.40;99.90;;;;;;7235140;32;20136;-82
2021/12/17 10:01:57;;;;;;;57.35;23.73;;;8.40;99.90;;;;;;7256905;32;20683;-83
2021/12/17 10:05:58;;;;;;;52.80;25.10;;;8.50;99.90;;;;;;7225427;32;20278;-83
2021/12/17 10:10:05;;;;;;;56.03;23.77;;;8.60;99.90;;;;;;7242581;32;20628;-82
2021/12/17 10:14:22;;;;;;;53.22;24.65;;;8.60;99.90;;;;;;7246373;32;20215;-82
2021/12/17 10:18:46;;;;;;;47.83;23.83;;;8.60;99.90;;;;;;7259275;32;20176;-79
2021/12/17 10:23:15;;;;;;;55.88;23.55;;;8.60;99.90;;;;;;7239094;32;20150;-80
2021/12/17 10:27:21;;;;;;;44.65;20.95;;;8.70;99.90;;;;;;7246100;32;20619;-81
2021/12/17 10:31:25;;;;;;;45.00;20.83;;;8.70;99.90;;;;;;7264286;32;20105;-79
2021/12/17 10:35:30;;;;;;;38.65;18.87;;;8.80;99.90;;;;;;7246838;32;20199;-81
2021/12/17 10:39:32;;;;;;;37.15;18.70;;;8.70;99.90;;;;;;7250996;32;20174;-82
2021/12/17 10:43:38;;;;;;;32.72;16.90;;;8.80;99.90;;;;;;7248469;32;20117;-83
2021/12/17 10:47:47;;;;;;;30.90;16.25;;;8.90;99.90;;;;;;7241808;32;20189;-82
2021/12/17 10:51:56;;;;;;;28.85;15.18;;;8.90;99.90;;;;;;7241941;32;20191;-82
2021/12/17 10:55:59;;;;;;;30.67;14.93;;;8.90;99.90;;;;;;7244673;32;20125;-79
2021/12/17 11:00:04;;;;;;;25.92;14.40;;;9.00;99.90;;;;;;7259803;32;20166;-80
2021/12/17 11:04:25;;;;;;;26.00;13.77;;;9.00;99.90;;;;;;7263081;32;20183;-79
2021/12/17 11:08:33;;;;;;;25.12;13.10;;;9.10;99.90;;;;;;7251367;32;20128;-80
2021/12/17 11:12:40;;;;;;;;;;;9.00;99.90;;;;;;7256411;32;20117;-82
2021/12/17 11:16:43;;;;;;;23.37;12.17;;;9.00;99.90;;;;;;7232366;32;20012;-82
2021/12/17 11:20:45;;;;;;;20.70;12.20;;;9.00;99.90;;;;;;7246926;32;20112;-83
2021/12/17 11:24:47;;;;;;;19.65;11.77;;;9.00;99.90;;;;;;7270264;32;20255;-82
2021/12/17 11:28:50;;;;;;;22.67;11.95;;;9.00;99.90;;;;;;7257476;32;20164;-81
2021/12/17 11:32:55;;;;;;;20.58;11.68;;;9.00;99.90;;;;;;7256970;32;20100;-82
2021/12/17 11:36:59;;;;;;;22.05;12.20;;;9.00;99.90;;;;;;7258680;32;20245;-83
2021/12/17 11:41:14;;;;;;;20.98;12.27;;;8.90;99.90;;;;;;7250146;32;20155;-83
2021/12/17 11:45:23;;;;;;;24.12;13.05;;;8.90;99.90;;;;;;7263295;32;20117;-82
2021/12/17 11:49:26;;;;;;;23.42;13.05;;;8.90;99.90;;;;;;7250537;32;20105;-81
2021/12/17 11:53:28;;;;;;;20.37;11.77;;;8.90;99.90;;;;;;7266618;32;20276;-82
2021/12/17 11:57:41;;;;;;;23.35;12.00;;;8.90;99.90;;;;;;7270048;32;20120;-78
2021/12/17 12:01:52;;;;;;;24.25;12.80;;;8.90;99.90;;;;;;7267018;32;20072;-80
2021/12/17 12:05:58;;;;;;;23.23;13.07;;;9.00;99.90;;;;;;7285959;32;20111;-80
2021/12/17 12:10:02;;;;;;;24.70;13.15;;;8.90;99.90;;;;;;7267510;32;20141;-83
2021/12/17 12:14:04;;;;;;;26.55;14.95;;;8.80;99.90;;;;;;7287188;32;20188;-80
2021/12/17 12:18:12;;;;;;;24.67;14.07;;;8.80;99.90;;;;;;7280204;32;20088;-81
2021/12/17 12:22:14;;;;;;;29.58;14.25;;;8.80;99.90;;;;;;7261656;32;20117;-80
2021/12/17 12:26:32;;;;;;;28.20;15.90;;;8.80;99.90;;;;;;7262700;32;20144;-79
2021/12/17 12:30:37;;;;;;;26.27;15.60;;;8.80;99.90;;;;;;7258234;32;20163;-83
2021/12/17 12:34:41;;;;;;;27.35;16.80;;;8.70;99.90;;;;;;7267456;32;20101;-83
2021/12/17 12:38:42;;;;;;;27.58;16.95;;;8.80;99.90;;;;;;7248681;32;20165;-80
2021/12/17 12:42:48;;;;;;;32.30;20.00;;;8.80;99.90;;;;;;7266400;32;20101;-81
2021/12/17 12:46:56;;;;;;;29.80;16.98;;;8.70;99.90;;;;;;7241835;32;20211;-81
2021/12/17 12:51:13;;;;;;;;;;;8.70;99.90;;;;;;7245461;32;20629;-80
2021/12/17 12:55:19;;;;;;;27.73;16.65;;;8.80;99.90;;;;;;7245755;32;20012;-81
2021/12/17 12:59:22;;;;;;;29.60;17.07;;;8.70;99.90;;;;;;7250289;32;20592;-81
2021/12/17 13:03:38;;;;;;;38.80;23.23;;;8.70;99.90;;;;;;7257834;32;20131;-82
2021/12/17 13:07:41;;;;;;;27.42;15.20;;;8.70;99.90;;;;;;7243213;32;20112;-82
2021/12/17 13:11:44;;;;;;;25.62;16.17;;;8.70;99.90;;;;;;7251467;32;20108;-82
2021/12/17 13:20:29;;;;;;;23.52;13.75;;;8.70;99.90;;;;;;7253582;32;20483;-83
2021/12/17 13:24:32;;;;;;;20.17;12.80;;;8.70;99.90;;;;;;7262703;32;20124;-79
2021/12/17 13:29:06;;;;;;;19.40;11.93;;;8.60;99.90;;;;;;7260707;32;20057;-80
2021/12/17 13:33:07;;;;;;;19.17;11.52;;;8.60;99.90;;;;;;7255791;32;20204;-80
2021/12/17 13:37:10;;;;;;;19.37;11.93;;;8.70;99.90;;;;;;7264247;32;20101;-80
2021/12/17 13:41:12;;;;;;;16.67;11.65;;;8.70;99.90;;;;;;7269795;32;20112;-78
2021/12/17 13:45:21;;;;;;;17.52;11.12;;;8.70;99.90;;;;;;7248943;32;20104;-79
2021/12/17 13:49:23;;;;;;;17.75;12.10;;;8.70;99.90;;;;;;7277390;32;20104;-79
2021/12/17 13:53:25;;;;;;;16.23;10.05;;;8.70;99.90;;;;;;7274224;32;20124;-80
2021/12/17 13:57:47;;;;;;;13.80;9.15;;;8.70;99.90;;;;;;7246078;32;20120;-81
2021/12/17 14:01:49;;;;;;;11.00;6.93;;;8.60;99.90;;;;;;7269631;32;20151;-81
2021/12/17 14:06:11;;;;;;;9.80;7.32;;;8.50;99.90;;;;;;7262108;32;20143;-80
2021/12/17 14:10:22;;;;;;;8.38;6.28;;;8.50;99.90;;;;;;7269681;32;20257;-81
2021/12/17 14:14:26;;;;;;;11.90;7.35;;;8.50;99.90;;;;;;7265259;32;20120;-80
2021/12/17 14:18:28;;;;;;;11.75;7.25;;;8.40;99.90;;;;;;7273610;32;20210;-80
2021/12/17 14:22:34;;;;;;;8.30;5.78;;;8.40;99.90;;;;;;7252008;32;20541;-81
2021/12/17 14:26:36;;;;;;;7.32;6.03;;;8.40;99.90;;;;;;7271861;32;20116;-81
2021/12/17 14:30:40;;;;;;;7.10;4.85;;;8.40;99.90;;;;;;7252153;32;20230;-81
2021/12/17 14:34:42;;;;;;;6.82;5.12;;;8.30;99.90;;;;;;7240269;32;20135;-81
2021/12/17 14:38:58;;;;;;;6.68;5.03;;;8.40;99.90;;;;;;7267487;32;20191;-84
2021/12/17 14:43:00;;;;;;;9.38;5.60;;;8.30;99.90;;;;;;7262630;32;20475;-83
2021/12/17 15:00:24;;;;;;;9.23;6.05;;;8.30;99.90;;;;;;7271996;32;20577;-81
2021/12/17 15:04:27;;;;;;;8.18;6.65;;;8.20;99.90;;;;;;7246985;32;20144;-83
2021/12/17 15:08:30;;;;;;;12.55;8.00;;;8.20;99.90;;;;;;7248338;32;20159;-84
2021/12/17 15:16:34;;;;;;;8.43;6.47;;;8.00;99.90;;;;;;7265817;32;20150;-83
2021/12/17 15:20:36;;;;;;;9.68;7.43;;;7.90;99.90;;;;;;7288485;32;20117;-82
2021/12/17 15:24:38;;;;;;;9.45;7.30;;;7.90;99.90;;;;;;7247119;32;20629;-83
2021/12/17 15:28:40;;;;;;;7.97;7.12;;;7.80;99.90;;;;;;7273459;32;20494;-82
2021/12/17 15:33:02;;;;;;;9.75;7.82;;;7.90;99.90;;;;;;7261228;32;20097;-82
2021/12/17 15:37:04;;;;;;;9.07;7.35;;;7.90;99.90;;;;;;7277151;32;20108;-82
2021/12/17 15:41:06;;;;;;;8.38;7.35;;;7.70;99.90;;;;;;7273008;32;20128;-82
2021/12/17 15:45:09;;;;;;;9.63;8.00;;;7.70;99.90;;;;;;7259261;32;20175;-81
2021/12/17 15:49:10;;;;;;;9.55;7.70;;;7.80;99.90;;;;;;7246815;32;20170;-81
2021/12/17 15:53:12;;;;;;;8.88;7.75;;;7.70;99.90;;;;;;7247793;32;20166;-82
2021/12/17 15:57:16;;;;;;;10.05;7.37;;;7.70;99.90;;;;;;7261278;32;20596;-83
2021/12/17 16:01:18;;;;;;;8.05;7.10;;;7.70;99.90;;;;;;7247904;32;20143;-82
2021/12/17 16:05:22;;;;;;;11.25;7.68;;;7.60;99.90;;;;;;7271779;32;20183;-83
2021/12/17 16:22:26;;;;;;;9.63;8.40;;;7.60;99.90;;;;;;7268688;32;20153;-82
2021/12/17 16:26:27;;;;;;;9.98;8.25;;;7.80;99.90;;;;;;7274801;32;20116;-81
2021/12/17 16:30:30;;;;;;;10.80;8.63;;;7.70;99.90;;;;;;7258256;32;20112;-82
2021/12/17 16:34:32;;;;;;;11.88;8.20;;;7.70;99.90;;;;;;7249708;32;20128;-84
2021/12/17 16:38:35;;;;;;;10.90;7.80;;;7.60;99.90;;;;;;7248305;32;22350;-82
2021/12/17 16:42:37;;;;;;;10.50;8.88;;;7.50;99.90;;;;;;7238019;32;20214;-82
2021/12/17 16:50:46;;;;;;;14.30;9.00;;;7.50;99.90;;;;;;7255867;32;20727;-83
2021/12/17 16:54:47;;;;;;;11.98;8.80;;;7.40;99.90;;;;;;7254096;32;20170;-83
2021/12/17 16:58:50;;;;;;;11.20;9.00;;;7.30;99.90;;;;;;7257066;32;20203;-82
2021/12/17 17:02:53;;;;;;;13.50;9.77;;;7.30;99.90;;;;;;7261939;32;20154;-84
2021/12/17 17:06:55;;;;;;;13.35;9.73;;;7.30;99.90;;;;;;7238111;32;20158;-81
2021/12/17 17:11:02;;;;;;;15.57;11.48;;;7.20;99.90;;;;;;7228465;32;20181;-81
2021/12/17 17:15:04;;;;;;;15.93;11.00;;;7.10;99.90;;;;;;7243980;32;20130;-83
2021/12/17 17:19:07;;;;;;;15.73;10.77;;;7.00;99.90;;;;;;7238408;32;20203;-82
2021/12/17 17:23:09;;;;;;;17.10;11.95;;;6.90;99.90;;;;;;7245438;32;20221;-84
2021/12/17 17:27:11;;;;;;;15.18;10.90;;;6.70;99.90;;;;;;7241555;32;20122;-84
2021/12/17 17:31:14;;;;;;;16.80;10.95;;;6.50;99.90;;;;;;7237604;32;20640;-83
2021/12/17 17:35:17;;;;;;;15.65;10.48;;;6.40;99.90;;;;;;7258491;32;20108;-83
2021/12/17 17:39:18;;;;;;;13.57;9.95;;;6.30;99.90;;;;;;7238562;32;20588;-84
2021/12/17 17:43:20;;;;;;;12.10;9.18;;;6.20;99.90;;;;;;7238623;32;20191;-82
2021/12/17 17:47:22;;;;;;;13.80;9.15;;;6.00;99.90;;;;;;7238595;32;20112;-83
2021/12/17 17:51:25;;;;;;;14.85;8.90;;;5.80;99.90;;;;;;7252471;32;20589;-84
2021/12/17 17:55:27;;;;;;;14.48;8.93;;;5.70;99.90;;;;;;7259215;32;20108;-83
2021/12/17 17:59:29;;;;;;;14.27;9.40;;;5.60;99.90;;;;;;7248711;32;20720;-83
2021/12/17 18:03:31;;;;;;;15.88;9.93;;;5.60;99.90;;;;;;7258598;32;20112;-83
2021/12/17 18:07:35;;;;;;;15.32;10.25;;;5.50;99.90;;;;;;7249925;32;20179;-83
2021/12/17 18:11:51;;;;;;;13.87;9.93;;;5.40;99.90;;;;;;7247292;32;20117;-83
2021/12/17 18:15:56;;;;;;;17.30;11.48;;;5.30;99.90;;;;;;7258731;32;20139;-82
2021/12/17 18:19:57;;;;;;;18.87;11.95;;;5.40;99.90;;;;;;7250303;32;20208;-82
2021/12/17 18:24:04;;;;;;;20.97;12.97;;;5.30;99.90;;;;;;7249181;32;20097;-83
2021/12/17 18:28:07;;;;;;;20.05;12.07;;;5.30;99.90;;;;;;7248489;32;20175;-84
2021/12/17 18:32:09;;;;;;;17.45;11.52;;;5.30;99.90;;;;;;7249981;32;20820;-83
2021/12/17 18:36:11;;;;;;;21.92;13.70;;;5.40;99.90;;;;;;7246199;32;20174;-81
2021/12/17 18:40:21;;;;;;;21.45;12.73;;;5.40;99.90;;;;;;7271063;32;20118;-83
2021/12/17 18:44:23;;;;;;;20.23;12.35;;;5.50;99.90;;;;;;7259491;32;20087;-82
2021/12/17 18:48:28;;;;;;;20.25;12.32;;;5.50;99.90;;;;;;7284911;32;20132;-80
2021/12/17 18:52:30;;;;;;;20.50;12.43;;;5.50;99.90;;;;;;7269661;32;20112;-81
2021/12/17 18:56:32;;;;;;;27.17;12.77;;;5.50;99.90;;;;;;7256075;32;20132;-80
2021/12/17 19:00:43;;;;;;;23.00;13.93;;;5.60;99.90;;;;;;7254153;32;20187;-81
2021/12/17 19:04:45;;;;;;;20.17;12.73;;;5.60;99.90;;;;;;7265431;32;20176;-81
2021/12/17 19:08:47;;;;;;;22.37;12.70;;;5.70;99.90;;;;;;7238987;32;20112;-81
2021/12/17 19:12:51;;;;;;;25.30;13.50;;;5.80;99.90;;;;;;7277234;32;20191;-82
2021/12/17 19:16:56;;;;;;;24.08;16.35;;;5.80;99.90;;;;;;7266080;32;20104;-82
2021/12/17 19:20:59;;;;;;;26.27;15.95;;;5.80;99.90;;;;;;7271842;32;20526;-82
2021/12/17 19:25:04;;;;;;;22.48;13.55;;;5.90;99.90;;;;;;7256823;32;20117;-82
2021/12/17 19:29:06;;;;;;;22.58;14.65;;;5.90;99.90;;;;;;7266843;32;20203;-82
2021/12/17 19:33:08;;;;;;;25.15;14.27;;;5.90;99.90;;;;;;7257305;32;20339;-82
2021/12/17 19:37:10;;;;;;;23.42;15.35;;;6.00;99.90;;;;;;7262180;32;20684;-82
2021/12/17 19:41:13;;;;;;;23.62;13.38;;;6.00;99.90;;;;;;7256337;32;20215;-82
2021/12/17 19:45:16;;;;;;;24.58;14.32;;;6.10;99.90;;;;;;7268717;32;20124;-81
2021/12/17 19:53:20;;;;;;;22.75;14.25;;;6.10;99.90;;;;;;7257631;32;20240;-82
2021/12/17 19:57:23;;;;;;;22.95;13.52;;;6.10;99.90;;;;;;7257615;32;20448;-82
2021/12/17 20:01:25;;;;;;;29.77;15.35;;;6.10;99.90;;;;;;7248327;32;20162;-80
2021/12/17 20:05:27;;;;;;;22.65;13.25;;;6.10;99.90;;;;;;7244501;32;20549;-82
2021/12/17 20:09:29;;;;;;;23.80;13.23;;;6.20;99.90;;;;;;7263586;32;20226;-82
2021/12/17 20:13:31;;;;;;;25.55;13.65;;;6.20;99.90;;;;;;7259569;32;20656;-82
2021/12/17 20:17:34;;;;;;;26.55;16.52;;;6.30;99.90;;;;;;7247913;32;20136;-83
2021/12/17 20:21:36;;;;;;;25.20;15.20;;;6.30;99.90;;;;;;7268053;32;20408;-81
2021/12/17 20:25:38;;;;;;;24.10;13.20;;;6.30;99.90;;;;;;7270457;32;21414;-81
2021/12/17 20:29:41;;;;;;;22.00;13.23;;;6.30;99.90;;;;;;7261060;32;20253;-82
2021/12/17 20:33:44;;;;;;;23.92;14.35;;;6.40;99.90;;;;;;7258720;32;20112;-82
2021/12/17 20:37:46;;;;;;;25.77;14.13;;;6.30;99.90;;;;;;7255174;32;20200;-81
2021/12/17 20:41:52;;;;;;;27.17;15.75;;;6.30;99.90;;;;;;7247348;32;20260;-82
2021/12/17 20:45:54;;;;;;;35.45;17.92;;;6.30;99.90;;;;;;7259442;32;20234;-82
2021/12/17 20:49:56;;;;;;;27.85;15.75;;;6.30;99.90;;;;;;7254308;32;20227;-83
2021/12/17 20:53:59;;;;;;;27.52;15.60;;;6.40;99.90;;;;;;7272419;32;20273;-81
2021/12/17 20:58:03;;;;;;;24.40;15.10;;;6.40;99.90;;;;;;7256892;32;20110;-80
2021/12/17 21:02:04;;;;;;;28.25;15.32;;;6.40;99.90;;;;;;7267620;32;20131;-82
2021/12/17 21:06:08;;;;;;;29.52;15.48;;;6.50;99.90;;;;;;7282141;32;20145;-81
2021/12/17 21:10:12;;;;;;;24.92;15.23;;;6.50;99.90;;;;;;7245383;32;20200;-82
2021/12/17 21:14:17;;;;;;;23.45;14.32;;;6.40;99.90;;;;;;7261278;32;20374;-81
2021/12/17 21:18:20;;;;;;;29.63;14.52;;;6.40;99.90;;;;;;7278408;32;20209;-80
2021/12/17 21:22:22;;;;;;;24.92;14.70;;;6.50;99.90;;;;;;7257574;32;20224;-81
2021/12/17 21:26:23;;;;;;;28.92;15.90;;;6.50;99.90;;;;;;7285071;32;20106;-84
2021/12/17 21:30:26;;;;;;;29.90;16.52;;;6.50;99.90;;;;;;7259739;32;20134;-83
2021/12/17 21:34:27;;;;;;;24.27;13.88;;;6.50;99.90;;;;;;7286008;32;20522;-83
2021/12/17 21:38:32;;;;;;;24.98;14.18;;;6.40;99.90;;;;;;7282391;32;20140;-84
2021/12/17 21:42:34;;;;;;;34.22;20.73;;;6.50;99.90;;;;;;7254307;32;20124;-84
2021/12/17 21:46:36;;;;;;;35.47;20.77;;;6.60;99.90;;;;;;7254024;32;20199;-83
2021/12/17 21:50:38;;;;;;;37.33;21.52;;;6.60;99.90;;;;;;7277430;32;20119;-83
2021/12/17 21:54:40;;;;;;;37.55;19.98;;;6.60;99.90;;;;;;7274937;32;20272;-83
2021/12/17 21:58:43;;;;;;;36.58;20.33;;;6.70;99.90;;;;;;7248373;32;20155;-83
2021/12/17 22:02:45;;;;;;;35.00;19.92;;;6.80;99.90;;;;;;7262526;32;20125;-79
2021/12/17 22:06:48;;;;;;;37.42;21.80;;;6.80;99.90;;;;;;7278561;32;20065;-81
2021/12/17 22:10:51;;;;;;;39.03;21.25;;;6.80;99.90;;;;;;7259311;32;21050;-82
2021/12/17 22:14:54;;;;;;;38.50;22.80;;;6.80;99.90;;;;;;7249390;32;20183;-81
2021/12/17 22:18:56;;;;;;;37.97;21.75;;;6.80;99.90;;;;;;7254919;32;20222;-81
2021/12/17 22:23:00;;;;;;;40.15;22.33;;;7.00;99.90;;;;;;7258006;32;20194;-82
2021/12/17 22:27:02;;;;;;;41.60;21.85;;;7.00;99.90;;;;;;7256498;32;20162;-82
2021/12/17 22:31:04;;;;;;;38.72;21.60;;;7.00;99.90;;;;;;7269149;32;20754;-82
2021/12/17 22:35:06;;;;;;;40.58;20.60;;;7.00;99.90;;;;;;7269457;32;20112;-81
2021/12/17 22:39:10;;;;;;;37.33;20.83;;;7.00;99.90;;;;;;7268298;32;20100;-82
2021/12/17 22:43:13;;;;;;;37.10;18.65;;;7.00;99.90;;;;;;7281619;32;20478;-82
2021/12/17 22:47:15;;;;;;;32.47;17.77;;;7.00;99.90;;;;;;7269998;32;20215;-82
2021/12/17 22:51:19;;;;;;;35.72;18.52;;;7.10;99.90;;;;;;7258750;32;20112;-83
2021/12/17 22:55:22;;;;;;;38.47;19.90;;;7.10;99.90;;;;;;7252559;32;20113;-82
2021/12/17 22:59:25;;;;;;;33.83;19.48;;;7.10;99.90;;;;;;7270375;32;20162;-82
2021/12/17 23:03:31;;;;;;;31.83;18.00;;;7.10;99.90;;;;;;7255587;32;20139;-82
2021/12/17 23:07:54;;;;;;;30.58;16.60;;;7.10;99.90;;;;;;7257232;32;20155;-83
2021/12/17 23:11:58;;;;;;;34.40;16.98;;;7.10;99.90;;;;;;7250373;32;20112;-83
2021/12/17 23:16:00;;;;;;;26.37;15.57;;;7.10;99.90;;;;;;7245519;32;20272;-83
2021/12/17 23:20:03;;;;;;;29.08;15.77;;;7.20;99.90;;;;;;7259435;32;20544;-82
2021/12/17 23:24:06;;;;;;;29.65;15.35;;;7.10;99.90;;;;;;7276254;32;20105;-82
2021/12/17 23:28:08;;;;;;;28.23;15.82;;;7.20;99.90;;;;;;7248452;32;20600;-82
2021/12/17 23:32:10;;;;;;;28.08;13.93;;;7.20;99.90;;;;;;7247245;32;20621;-83
2021/12/17 23:36:13;;;;;;;31.37;15.93;;;7.20;99.90;;;;;;7247128;32;20556;-82
2021/12/17 23:40:15;;;;;;;24.33;13.43;;;7.30;99.90;;;;;;7254561;32;20123;-82
2021/12/17 23:44:17;;;;;;;28.73;13.75;;;7.20;99.90;;;;;;7245839;32;20148;-82
2021/12/17 23:48:20;;;;;;;29.75;15.80;;;7.10;99.90;;;;;;7258672;32;20214;-82
2021/12/17 23:52:22;;;;;;;28.40;15.98;;;7.20;99.90;;;;;;7253634;32;20170;-83
2021/12/17 23:56:24;;;;;;;27.45;13.88;;;7.20;99.90;;;;;;7258618;32;20147;-83
